AirNav   Everest Fuels
 
 1100 users online  

2FD7 Air Orlando Heliport
Orlando, Florida, USA

GOING TO ORLANDO?


FAA INFORMATION EFFECTIVE 22 APRIL 2021

Location

FAA Identifier: 2FD7
Lat/Long: 28-26-08.0210N 081-28-23.2590W
28-26.133683N 081-28.387650W
28.4355614,-81.4731275
(estimated)
Elevation: 120 ft. / 37 m (estimated)
Variation: 03W (1985)
From city: 2 miles S of ORLANDO, FL
Time zone: UTC -4 (UTC -5 during Standard Time)
Zip code: 32819

Heliport Operations

Heliport use: Private use. Permission required prior to landing
Activation date: 09/1987
Control tower: no
ARTCC: JACKSONVILLE CENTER
FSS: SAINT PETERSBURG FLIGHT SERVICE STATION
Attendance: 0830-2330
ARPT UNATNDD THANKSGIVING & CHRISTMAS.
Wind indicator: yes
Segmented circle: no
Lights: ACTVT PERIMETER LGTS H1 - 123.05.

Heliport Communications

WX ASOS at MCO (9 nm E): PHONE 407-855-5235
WX AWOS-3PT at ISM (9 nm S): 128.775 (407-847-0533)
WX ASOS at ORL (10 nm NE): 127.25 (407-658-6753)

Nearby radio navigation aids

VOR radial/distance  VOR name  Freq  Var
ORLr229/9.7ORLANDO VORTAC112.2000E
LALr046/39.3LAKELAND VORTAC116.0001E

Heliport Services

Fuel available: A

Runway Information

Helipad H1

Dimensions: 32 x 32 ft. / 10 x 10 m
Surface: concrete
Runway edge lights: PERI
Operational restrictions: CIRCULAR HELIPAD.
Traffic pattern: leftleft

Helipad H2

Dimensions: 28 x 28 ft. / 9 x 9 m
Surface: concrete
Operational restrictions: CIRCULAR HELIPAD.
Traffic pattern: leftleft

Helipad H3

Dimensions: 28 x 28 ft. / 9 x 9 m
Surface: concrete
Operational restrictions: CIRCULAR HELIPAD.
Traffic pattern: leftleft

Heliport Ownership and Management from official FAA records

Ownership: Privately-owned
Owner: AIR ORLANDO HELICOPTER INC
8990 INTERNATIONAL DR
ORLANDO, FL 32819
Phone 407-354-1400
Manager: SAM GROOME
8990 INTERNATIONAL DR
ORLANDO, FL 32819
Phone 407-354-1400

Additional Remarks

A52-H1 80' BLDG 600' N & 40' TREES 175' S OF PAD.
FOR CD CTC ORLANDO APCH AT 407-852-7553.

Instrument Procedures

There are no published instrument procedures at 2FD7.

Some nearby airports with instrument procedures:

KMCO - Orlando International Airport (9 nm E)
KISM - Kissimmee Gateway Airport (9 nm S)
KORL - Executive Airport (10 nm NE)
X04 - Orlando Apopka Airport (17 nm N)
KSFB - Orlando Sanford International Airport (24 nm NE)
 
Loc | Ops | Rwys | IFR | FBO | Links
Com | Nav | Svcs | Stats | Notes


 
Area around 2FD7 (Air Orlando Heliport)
 
Road maps at: MapQuest Bing Google
 
Aerial photo
WARNING: Photo may not be current or correct
Aerial photo of 2FD7 (Air Orlando Heliport)
Do you have a better or more recent aerial photo of Air Orlando Heliport that you would like to share? If so, please send us your photo.

 
Sectional chart

 
Airport distance calculator
Flying to Air Orlando Heliport? Find the distance to fly.

From to 2FD7

Sunrise and sunset
Times for 15-May-2021
 Local
(UTC-4)
 Zulu
(UTC)
Morning civil twilight06:1110:11
Sunrise06:3610:36
Sunset20:0800:08
Evening civil twilight20:3400:34

Current date and time
Zulu (UTC)  15-May-2021 20:33:49
Local (UTC-4)  15-May-2021 16:33:49
 
METAR
KMCO 
7nm E 
151953Z 05012G20KT 10SM FEW060 SCT080 BKN250 27/12 A3013 RMK AO2 SLP201 T02720117
KISM 
9nm S 
151956Z 06013G16KT 10SM SCT080 27/13 A3013 RMK AO2 SLP204 T02670133 PNO $
KORL 
10nm NE 
151953Z 07013G21KT 10SM BKN065 27/12 A3014 RMK AO2 SLP208 T02720117
TAF
KMCO 
7nm E 
151735Z 1518/1624 05017G25KT P6SM BKN060 FM160300 03007KT P6SM FEW050 FM161500 06014G20KT P6SM SCT050 SCT250
KISM 
9nm S 
151735Z 1518/1618 05017G25KT P6SM BKN060 FM160300 03007KT P6SM FEW050 FM161500 06014G20KT P6SM SCT050 SCT250
NOTAMs
Click for the latest NOTAMs
NOTAMs are issued by the DoD/FAA and will open in a separate window not controlled by AirNav.

 

 
 

Would you like to see your business listed on this page?

 If your business provides an interesting product or service to pilots, flight crews, aircraft, or users of the Air Orlando Heliport, you should consider listing it here.  To start the listing process, click on the button below
 
Add a business
 

Other Pages about Air Orlando Heliport

Update a link
 
Copyright © AirNav, LLC. All rights reserved. Privacy Policy  Contact